sensor_id;sensor_type;location;lat;lon;timestamp;pressure;altitude;pressure_sealevel;temperature;humidity
32747;BME280;19118;50.860;13.662;2023-12-07T00:00:35;96915.66;;;3.79;100.00
32747;BME280;19118;50.860;13.662;2023-12-07T00:05:36;96915.22;;;3.92;100.00
32747;BME280;19118;50.860;13.662;2023-12-07T00:10:36;96910.53;;;4.04;100.00
32747;BME280;19118;50.860;13.662;2023-12-07T00:15:36;96919.38;;;4.11;100.00
32747;BME280;19118;50.860;13.662;2023-12-07T00:20:37;96918.19;;;3.97;100.00
32747;BME280;19118;50.860;13.662;2023-12-07T00:25:37;96918.28;;;4.22;100.00
32747;BME280;19118;50.860;13.662;2023-12-07T00:30:38;96930.00;;;4.09;100.00
32747;BME280;19118;50.860;13.662;2023-12-07T00:35:38;96926.53;;;4.01;100.00
32747;BME280;19118;50.860;13.662;2023-12-07T00:40:39;96921.34;;;4.17;100.00
32747;BME280;19118;50.860;13.662;2023-12-07T00:45:40;96925.22;;;3.97;100.00
32747;BME280;19118;50.860;13.662;2023-12-07T00:50:40;96920.22;;;4.12;100.00
32747;BME280;19118;50.860;13.662;2023-12-07T00:55:40;96923.50;;;3.79;100.00
32747;BME280;19118;50.860;13.662;2023-12-07T01:00:41;96927.19;;;4.03;100.00
32747;BME280;19118;50.860;13.662;2023-12-07T01:05:41;96932.81;;;4.16;100.00
32747;BME280;19118;50.860;13.662;2023-12-07T01:10:41;96938.09;;;4.32;100.00
32747;BME280;19118;50.860;13.662;2023-12-07T01:15:42;96945.59;;;4.27;100.00
32747;BME280;19118;50.860;13.662;2023-12-07T01:20:42;96947.22;;;4.28;100.00
32747;BME280;19118;50.860;13.662;2023-12-07T01:25:42;96949.19;;;4.26;100.00
32747;BME280;19118;50.860;13.662;2023-12-07T01:30:43;96957.41;;;4.39;100.00
32747;BME280;19118;50.860;13.662;2023-12-07T01:35:43;96962.63;;;4.31;100.00
32747;BME280;19118;50.860;13.662;2023-12-07T01:40:43;96969.34;;;4.34;100.00
32747;BME280;19118;50.860;13.662;2023-12-07T01:45:44;96969.38;;;4.42;100.00
32747;BME280;19118;50.860;13.662;2023-12-07T01:50:44;96977.81;;;4.28;100.00
32747;BME280;19118;50.860;13.662;2023-12-07T01:55:45;96980.38;;;4.12;100.00
32747;BME280;19118;50.860;13.662;2023-12-07T02:00:46;96984.53;;;4.22;100.00
32747;BME280;19118;50.860;13.662;2023-12-07T02:05:48;96983.63;;;4.48;100.00
32747;BME280;19118;50.860;13.662;2023-12-07T02:10:49;96987.06;;;4.56;100.00
32747;BME280;19118;50.860;13.662;2023-12-07T02:15:49;96983.28;;;4.51;100.00
32747;BME280;19118;50.860;13.662;2023-12-07T02:21:01;96995.94;;;4.13;100.00
32747;BME280;19118;50.860;13.662;2023-12-07T02:26:06;96993.41;;;4.37;100.00
32747;BME280;19118;50.860;13.662;2023-12-07T02:31:07;96996.31;;;4.26;100.00
32747;BME280;19118;50.860;13.662;2023-12-07T02:36:07;97001.38;;;4.28;100.00
32747;BME280;19118;50.860;13.662;2023-12-07T02:41:08;97000.78;;;4.42;100.00
32747;BME280;19118;50.860;13.662;2023-12-07T02:46:08;96998.59;;;4.29;100.00
32747;BME280;19118;50.860;13.662;2023-12-07T02:51:09;97005.50;;;4.38;100.00
32747;BME280;19118;50.860;13.662;2023-12-07T02:56:09;97014.69;;;4.43;100.00
32747;BME280;19118;50.860;13.662;2023-12-07T03:01:09;97018.59;;;4.38;100.00
32747;BME280;19118;50.860;13.662;2023-12-07T03:06:10;97015.97;;;4.38;100.00
32747;BME280;19118;50.860;13.662;2023-12-07T03:11:10;97028.44;;;4.53;100.00
32747;BME280;19118;50.860;13.662;2023-12-07T03:16:11;97029.50;;;3.92;100.00
32747;BME280;19118;50.860;13.662;2023-12-07T03:21:11;97023.50;;;4.42;100.00
32747;BME280;19118;50.860;13.662;2023-12-07T03:26:12;97038.69;;;4.30;100.00
32747;BME280;19118;50.860;13.662;2023-12-07T03:31:12;97034.47;;;4.03;100.00
32747;BME280;19118;50.860;13.662;2023-12-07T03:36:12;97042.41;;;4.19;100.00
32747;BME280;19118;50.860;13.662;2023-12-07T03:41:13;97035.28;;;4.37;100.00
32747;BME280;19118;50.860;13.662;2023-12-07T03:46:13;97037.44;;;4.42;100.00
32747;BME280;19118;50.860;13.662;2023-12-07T03:51:14;97041.47;;;4.28;100.00
32747;BME280;19118;50.860;13.662;2023-12-07T03:56:27;97044.59;;;4.40;100.00
32747;BME280;19118;50.860;13.662;2023-12-07T04:01:29;97036.22;;;4.28;100.00
32747;BME280;19118;50.860;13.662;2023-12-07T04:06:29;97037.28;;;4.09;100.00
32747;BME280;19118;50.860;13.662;2023-12-07T04:11:29;97049.63;;;3.91;100.00
32747;BME280;19118;50.860;13.662;2023-12-07T04:16:30;97047.66;;;3.93;100.00
32747;BME280;19118;50.860;13.662;2023-12-07T04:21:30;97055.34;;;4.21;100.00
32747;BME280;19118;50.860;13.662;2023-12-07T04:26:31;97058.84;;;4.03;100.00
32747;BME280;19118;50.860;13.662;2023-12-07T04:31:31;97065.00;;;4.20;100.00
32747;BME280;19118;50.860;13.662;2023-12-07T04:36:31;97078.19;;;4.11;100.00
32747;BME280;19118;50.860;13.662;2023-12-07T04:41:31;97071.88;;;4.21;100.00
32747;BME280;19118;50.860;13.662;2023-12-07T04:46:32;97083.31;;;3.94;100.00
32747;BME280;19118;50.860;13.662;2023-12-07T04:51:32;97079.66;;;4.13;100.00
32747;BME280;19118;50.860;13.662;2023-12-07T04:56:32;97083.03;;;4.31;100.00
32747;BME280;19118;50.860;13.662;2023-12-07T05:01:33;97094.66;;;4.03;100.00
32747;BME280;19118;50.860;13.662;2023-12-07T05:06:34;97093.16;;;4.26;100.00
32747;BME280;19118;50.860;13.662;2023-12-07T05:11:34;97097.72;;;4.24;100.00
32747;BME280;19118;50.860;13.662;2023-12-07T05:16:36;97091.34;;;4.27;100.00
32747;BME280;19118;50.860;13.662;2023-12-07T05:21:37;97095.53;;;4.46;100.00
32747;BME280;19118;50.860;13.662;2023-12-07T05:26:37;97092.53;;;4.32;100.00
32747;BME280;19118;50.860;13.662;2023-12-07T05:31:39;97102.38;;;4.38;100.00
32747;BME280;19118;50.860;13.662;2023-12-07T05:36:39;97108.69;;;4.28;100.00
32747;BME280;19118;50.860;13.662;2023-12-07T05:41:39;97101.16;;;4.25;100.00
32747;BME280;19118;50.860;13.662;2023-12-07T05:46:40;97113.16;;;4.35;100.00
32747;BME280;19118;50.860;13.662;2023-12-07T05:51:44;97121.00;;;4.35;100.00
32747;BME280;19118;50.860;13.662;2023-12-07T05:56:44;97115.78;;;4.35;100.00
32747;BME280;19118;50.860;13.662;2023-12-07T06:01:44;97119.44;;;4.51;100.00
32747;BME280;19118;50.860;13.662;2023-12-07T06:06:45;97116.38;;;4.29;100.00
32747;BME280;19118;50.860;13.662;2023-12-07T06:11:46;97121.00;;;4.35;100.00
32747;BME280;19118;50.860;13.662;2023-12-07T06:16:46;97122.03;;;4.43;100.00
32747;BME280;19118;50.860;13.662;2023-12-07T06:21:46;97137.38;;;4.37;100.00
32747;BME280;19118;50.860;13.662;2023-12-07T06:26:47;97136.94;;;4.42;100.00
32747;BME280;19118;50.860;13.662;2023-12-07T06:31:47;97135.75;;;4.36;100.00
32747;BME280;19118;50.860;13.662;2023-12-07T06:36:47;97148.22;;;4.17;100.00
32747;BME280;19118;50.860;13.662;2023-12-07T06:41:48;97137.75;;;4.43;100.00
32747;BME280;19118;50.860;13.662;2023-12-07T06:46:48;97140.38;;;4.51;100.00
32747;BME280;19118;50.860;13.662;2023-12-07T06:51:49;97135.19;;;4.25;100.00
32747;BME280;19118;50.860;13.662;2023-12-07T06:56:49;97146.56;;;4.42;100.00
32747;BME280;19118;50.860;13.662;2023-12-07T07:01:50;97153.16;;;4.20;100.00
32747;BME280;19118;50.860;13.662;2023-12-07T07:06:50;97154.00;;;4.28;100.00
32747;BME280;19118;50.860;13.662;2023-12-07T07:11:51;97161.56;;;4.31;100.00
32747;BME280;19118;50.860;13.662;2023-12-07T07:16:53;97163.19;;;4.06;100.00
32747;BME280;19118;50.860;13.662;2023-12-07T07:21:54;97164.31;;;4.30;100.00
32747;BME280;19118;50.860;13.662;2023-12-07T07:26:54;97163.63;;;4.46;100.00
32747;BME280;19118;50.860;13.662;2023-12-07T07:31:55;97161.97;;;4.45;100.00
32747;BME280;19118;50.860;13.662;2023-12-07T07:36:56;97172.13;;;4.48;100.00
32747;BME280;19118;50.860;13.662;2023-12-07T07:41:56;97169.56;;;4.56;100.00
32747;BME280;19118;50.860;13.662;2023-12-07T07:46:56;97162.84;;;4.87;100.00
32747;BME280;19118;50.860;13.662;2023-12-07T07:51:57;97165.69;;;5.02;100.00
32747;BME280;19118;50.860;13.662;2023-12-07T07:56:57;97175.03;;;5.05;100.00
32747;BME280;19118;50.860;13.662;2023-12-07T08:01:57;97178.69;;;5.28;100.00
32747;BME280;19118;50.860;13.662;2023-12-07T08:06:58;97172.00;;;5.42;100.00
32747;BME280;19118;50.860;13.662;2023-12-07T08:11:58;97172.66;;;5.36;100.00
32747;BME280;19118;50.860;13.662;2023-12-07T08:16:59;97177.94;;;5.52;100.00
32747;BME280;19118;50.860;13.662;2023-12-07T08:21:59;97176.78;;;5.63;100.00
32747;BME280;19118;50.860;13.662;2023-12-07T08:26:59;97182.53;;;5.58;100.00
32747;BME280;19118;50.860;13.662;2023-12-07T08:32:00;97174.97;;;5.47;100.00
32747;BME280;19118;50.860;13.662;2023-12-07T08:37:00;97183.22;;;5.68;100.00
32747;BME280;19118;50.860;13.662;2023-12-07T08:42:00;97191.25;;;5.83;100.00
32747;BME280;19118;50.860;13.662;2023-12-07T08:47:01;97187.94;;;5.65;100.00
32747;BME280;19118;50.860;13.662;2023-12-07T08:52:02;97194.19;;;5.88;100.00
32747;BME280;19118;50.860;13.662;2023-12-07T08:57:03;97196.19;;;5.78;100.00
32747;BME280;19118;50.860;13.662;2023-12-07T09:02:03;97210.94;;;5.87;100.00
32747;BME280;19118;50.860;13.662;2023-12-07T09:07:04;97211.09;;;5.69;100.00
32747;BME280;19118;50.860;13.662;2023-12-07T09:12:04;97221.31;;;6.05;100.00
32747;BME280;19118;50.860;13.662;2023-12-07T09:17:05;97225.44;;;6.24;100.00
32747;BME280;19118;50.860;13.662;2023-12-07T09:22:05;97215.56;;;6.18;100.00
32747;BME280;19118;50.860;13.662;2023-12-07T09:27:05;97211.78;;;6.20;100.00
32747;BME280;19118;50.860;13.662;2023-12-07T09:32:07;97219.50;;;5.97;100.00
32747;BME280;19118;50.860;13.662;2023-12-07T09:37:10;97219.19;;;6.08;100.00
32747;BME280;19118;50.860;13.662;2023-12-07T09:42:11;97218.19;;;6.09;100.00
32747;BME280;19118;50.860;13.662;2023-12-07T09:47:12;97222.47;;;6.02;100.00
32747;BME280;19118;50.860;13.662;2023-12-07T09:52:13;97218.50;;;6.55;100.00
32747;BME280;19118;50.860;13.662;2023-12-07T09:57:14;97217.06;;;6.12;100.00
32747;BME280;19118;50.860;13.662;2023-12-07T10:02:15;97220.81;;;6.34;100.00
32747;BME280;19118;50.860;13.662;2023-12-07T10:07:16;97220.78;;;6.66;100.00
32747;BME280;19118;50.860;13.662;2023-12-07T10:12:26;97216.16;;;6.77;100.00
32747;BME280;19118;50.860;13.662;2023-12-07T10:17:58;97214.81;;;6.89;100.00
32747;BME280;19118;50.860;13.662;2023-12-07T10:23:09;97206.22;;;5.99;100.00
32747;BME280;19118;50.860;13.662;2023-12-07T10:28:10;97214.13;;;6.23;100.00
32747;BME280;19118;50.860;13.662;2023-12-07T10:33:12;97208.13;;;5.89;100.00
32747;BME280;19118;50.860;13.662;2023-12-07T10:38:13;97204.41;;;6.32;100.00
32747;BME280;19118;50.860;13.662;2023-12-07T10:43:15;97204.09;;;6.27;100.00
32747;BME280;19118;50.860;13.662;2023-12-07T10:48:16;97201.63;;;6.25;100.00
32747;BME280;19118;50.860;13.662;2023-12-07T10:53:26;97206.53;;;6.45;100.00
32747;BME280;19118;50.860;13.662;2023-12-07T10:58:27;97201.03;;;6.79;100.00
32747;BME280;19118;50.860;13.662;2023-12-07T11:03:28;97202.44;;;6.09;100.00
32747;BME280;19118;50.860;13.662;2023-12-07T11:08:42;97205.19;;;5.75;100.00
32747;BME280;19118;50.860;13.662;2023-12-07T11:13:56;97208.69;;;6.00;100.00
32747;BME280;19118;50.860;13.662;2023-12-07T11:18:58;97208.44;;;5.77;100.00
32747;BME280;19118;50.860;13.662;2023-12-07T11:24:00;97203.13;;;6.03;100.00
32747;BME280;19118;50.860;13.662;2023-12-07T11:29:01;97198.75;;;5.53;100.00
32747;BME280;19118;50.860;13.662;2023-12-07T11:34:06;97202.56;;;5.67;100.00
32747;BME280;19118;50.860;13.662;2023-12-07T11:44:09;97205.91;;;5.94;100.00
32747;BME280;19118;50.860;13.662;2023-12-07T11:49:10;97197.88;;;6.03;100.00
32747;BME280;19118;50.860;13.662;2023-12-07T11:54:11;97199.78;;;5.85;100.00
32747;BME280;19118;50.860;13.662;2023-12-07T11:59:11;97202.41;;;5.85;100.00
32747;BME280;19118;50.860;13.662;2023-12-07T12:04:12;97201.25;;;5.88;100.00
32747;BME280;19118;50.860;13.662;2023-12-07T12:09:14;97203.34;;;5.51;100.00
32747;BME280;19118;50.860;13.662;2023-12-07T12:14:17;97192.56;;;5.71;100.00
32747;BME280;19118;50.860;13.662;2023-12-07T12:19:18;97201.56;;;5.68;100.00
32747;BME280;19118;50.860;13.662;2023-12-07T12:24:18;97202.72;;;5.58;100.00
32747;BME280;19118;50.860;13.662;2023-12-07T12:29:19;97197.47;;;5.58;100.00
32747;BME280;19118;50.860;13.662;2023-12-07T12:34:24;97192.22;;;5.66;100.00
32747;BME280;19118;50.860;13.662;2023-12-07T12:39:28;97183.19;;;5.76;100.00
32747;BME280;19118;50.860;13.662;2023-12-07T12:44:30;97189.59;;;5.74;100.00
32747;BME280;19118;50.860;13.662;2023-12-07T12:49:41;97178.94;;;5.59;100.00
32747;BME280;19118;50.860;13.662;2023-12-07T12:54:44;97188.56;;;5.34;100.00
32747;BME280;19118;50.860;13.662;2023-12-07T12:59:44;97177.41;;;5.40;100.00
32747;BME280;19118;50.860;13.662;2023-12-07T13:04:45;97183.34;;;5.50;100.00
32747;BME280;19118;50.860;13.662;2023-12-07T13:09:45;97183.88;;;5.78;100.00
32747;BME280;19118;50.860;13.662;2023-12-07T13:14:46;97176.19;;;6.09;100.00
32747;BME280;19118;50.860;13.662;2023-12-07T13:19:46;97165.16;;;5.73;100.00
32747;BME280;19118;50.860;13.662;2023-12-07T13:24:48;97170.69;;;5.38;100.00
32747;BME280;19118;50.860;13.662;2023-12-07T13:29:48;97174.88;;;5.89;100.00
32747;BME280;19118;50.860;13.662;2023-12-07T13:34:50;97176.53;;;5.98;100.00
32747;BME280;19118;50.860;13.662;2023-12-07T13:39:50;97180.13;;;5.89;100.00
32747;BME280;19118;50.860;13.662;2023-12-07T13:44:57;97183.50;;;5.65;100.00
32747;BME280;19118;50.860;13.662;2023-12-07T13:49:58;97194.16;;;5.47;100.00
32747;BME280;19118;50.860;13.662;2023-12-07T13:54:59;97192.50;;;5.38;100.00
32747;BME280;19118;50.860;13.662;2023-12-07T13:59:59;97209.53;;;5.42;100.00
32747;BME280;19118;50.860;13.662;2023-12-07T14:05:00;97215.69;;;5.17;100.00
32747;BME280;19118;50.860;13.662;2023-12-07T14:10:00;97209.31;;;5.19;100.00
32747;BME280;19118;50.860;13.662;2023-12-07T14:15:00;97196.56;;;5.24;100.00
32747;BME280;19118;50.860;13.662;2023-12-07T14:20:01;97196.56;;;5.24;100.00
32747;BME280;19118;50.860;13.662;2023-12-07T14:25:01;97195.59;;;5.34;100.00
32747;BME280;19118;50.860;13.662;2023-12-07T14:30:02;97193.38;;;5.55;100.00
32747;BME280;19118;50.860;13.662;2023-12-07T14:35:02;97191.63;;;5.21;100.00
32747;BME280;19118;50.860;13.662;2023-12-07T14:40:03;97189.84;;;5.30;100.00
32747;BME280;19118;50.860;13.662;2023-12-07T14:45:05;97193.72;;;5.10;100.00
32747;BME280;19118;50.860;13.662;2023-12-07T14:50:06;97194.25;;;5.30;100.00
32747;BME280;19118;50.860;13.662;2023-12-07T14:55:06;97177.84;;;5.19;100.00
32747;BME280;19118;50.860;13.662;2023-12-07T15:00:07;97176.56;;;5.23;100.00
32747;BME280;19118;50.860;13.662;2023-12-07T15:05:08;97187.13;;;5.06;100.00
32747;BME280;19118;50.860;13.662;2023-12-07T15:10:09;97199.34;;;5.23;100.00
32747;BME280;19118;50.860;13.662;2023-12-07T15:15:09;97206.22;;;5.24;100.00
32747;BME280;19118;50.860;13.662;2023-12-07T15:20:10;97210.31;;;5.26;100.00
32747;BME280;19118;50.860;13.662;2023-12-07T15:25:10;97206.06;;;5.25;100.00
32747;BME280;19118;50.860;13.662;2023-12-07T15:30:11;97203.47;;;5.42;100.00
32747;BME280;19118;50.860;13.662;2023-12-07T15:35:13;97198.38;;;5.40;100.00
32747;BME280;19118;50.860;13.662;2023-12-07T15:40:13;97209.22;;;5.37;100.00
32747;BME280;19118;50.860;13.662;2023-12-07T15:45:14;97210.81;;;5.30;100.00
32747;BME280;19118;50.860;13.662;2023-12-07T15:50:15;97209.69;;;5.33;100.00
32747;BME280;19118;50.860;13.662;2023-12-07T15:55:15;97205.31;;;4.99;100.00
32747;BME280;19118;50.860;13.662;2023-12-07T16:00:15;97190.03;;;4.94;100.00
32747;BME280;19118;50.860;13.662;2023-12-07T16:05:16;97183.25;;;5.10;100.00
32747;BME280;19118;50.860;13.662;2023-12-07T16:10:16;97181.84;;;4.89;100.00
32747;BME280;19118;50.860;13.662;2023-12-07T16:15:16;97175.06;;;5.13;100.00
32747;BME280;19118;50.860;13.662;2023-12-07T16:20:17;97183.44;;;4.82;100.00
32747;BME280;19118;50.860;13.662;2023-12-07T16:25:17;97188.19;;;4.87;100.00
32747;BME280;19118;50.860;13.662;2023-12-07T16:30:17;97192.03;;;5.01;100.00
32747;BME280;19118;50.860;13.662;2023-12-07T16:35:18;97190.69;;;4.88;100.00
32747;BME280;19118;50.860;13.662;2023-12-07T16:40:18;97187.78;;;5.00;100.00
32747;BME280;19118;50.860;13.662;2023-12-07T16:45:19;97187.13;;;5.06;100.00
32747;BME280;19118;50.860;13.662;2023-12-07T16:50:20;97177.47;;;5.06;100.00
32747;BME280;19118;50.860;13.662;2023-12-07T16:55:20;97185.19;;;5.08;100.00
32747;BME280;19118;50.860;13.662;2023-12-07T17:00:21;97199.59;;;5.04;100.00
32747;BME280;19118;50.860;13.662;2023-12-07T17:05:22;97193.00;;;4.91;100.00
32747;BME280;19118;50.860;13.662;2023-12-07T17:10:22;97207.22;;;4.89;100.00
32747;BME280;19118;50.860;13.662;2023-12-07T17:15:23;97201.88;;;4.99;100.00
32747;BME280;19118;50.860;13.662;2023-12-07T17:20:23;97196.91;;;4.95;100.00
32747;BME280;19118;50.860;13.662;2023-12-07T17:25:23;97189.09;;;5.04;100.00
32747;BME280;19118;50.860;13.662;2023-12-07T17:30:24;97197.56;;;4.97;100.00
32747;BME280;19118;50.860;13.662;2023-12-07T17:35:27;97198.66;;;5.13;100.00
32747;BME280;19118;50.860;13.662;2023-12-07T17:40:27;97195.66;;;5.08;100.00
32747;BME280;19118;50.860;13.662;2023-12-07T17:45:27;97208.19;;;5.22;100.00
32747;BME280;19118;50.860;13.662;2023-12-07T17:50:28;97219.66;;;5.21;100.00
32747;BME280;19118;50.860;13.662;2023-12-07T17:55:28;97220.59;;;5.12;100.00
32747;BME280;19118;50.860;13.662;2023-12-07T18:00:28;97210.66;;;4.89;100.00
32747;BME280;19118;50.860;13.662;2023-12-07T18:05:28;97200.41;;;5.04;100.00
32747;BME280;19118;50.860;13.662;2023-12-07T18:10:29;97191.41;;;5.07;100.00
32747;BME280;19118;50.860;13.662;2023-12-07T18:15:29;97192.72;;;5.03;100.00
32747;BME280;19118;50.860;13.662;2023-12-07T18:20:29;97202.94;;;5.22;100.00
32747;BME280;19118;50.860;13.662;2023-12-07T18:25:30;97192.53;;;5.04;100.00
32747;BME280;19118;50.860;13.662;2023-12-07T18:30:30;97197.56;;;4.97;100.00
32747;BME280;19118;50.860;13.662;2023-12-07T18:35:31;97179.88;;;4.91;100.00
32747;BME280;19118;50.860;13.662;2023-12-07T18:40:31;97177.44;;;4.90;100.00
32747;BME280;19118;50.860;13.662;2023-12-07T18:45:32;97163.75;;;5.12;100.00
32747;BME280;19118;50.860;13.662;2023-12-07T18:50:32;97172.13;;;5.24;100.00
32747;BME280;19118;50.860;13.662;2023-12-07T18:55:32;97158.50;;;5.20;100.00
32747;BME280;19118;50.860;13.662;2023-12-07T19:00:33;97147.19;;;5.12;100.00
32747;BME280;19118;50.860;13.662;2023-12-07T19:05:33;97149.78;;;5.04;100.00
32747;BME280;19118;50.860;13.662;2023-12-07T19:10:34;97147.38;;;5.10;100.00
32747;BME280;19118;50.860;13.662;2023-12-07T19:15:34;97148.81;;;5.05;100.00
32747;BME280;19118;50.860;13.662;2023-12-07T19:20:34;97154.38;;;5.02;100.00
32747;BME280;19118;50.860;13.662;2023-12-07T19:25:35;97146.34;;;5.03;100.00
32747;BME280;19118;50.860;13.662;2023-12-07T19:30:35;97140.91;;;4.96;100.00
32747;BME280;19118;50.860;13.662;2023-12-07T19:35:35;97133.75;;;4.99;100.00
32747;BME280;19118;50.860;13.662;2023-12-07T19:40:35;97130.50;;;5.13;100.00
32747;BME280;19118;50.860;13.662;2023-12-07T19:45:36;97118.63;;;4.92;100.00
32747;BME280;19118;50.860;13.662;2023-12-07T19:50:37;97112.44;;;5.02;100.00
32747;BME280;19118;50.860;13.662;2023-12-07T19:55:38;97098.81;;;4.90;100.00
32747;BME280;19118;50.860;13.662;2023-12-07T20:00:38;97094.44;;;4.99;100.00
32747;BME280;19118;50.860;13.662;2023-12-07T20:05:39;97090.47;;;4.94;100.00
32747;BME280;19118;50.860;13.662;2023-12-07T20:10:39;97077.69;;;4.91;100.00
32747;BME280;19118;50.860;13.662;2023-12-07T20:15:40;97074.25;;;4.91;100.00
32747;BME280;19118;50.860;13.662;2023-12-07T20:20:40;97079.25;;;4.68;100.00
32747;BME280;19118;50.860;13.662;2023-12-07T20:25:42;97054.84;;;4.59;100.00
32747;BME280;19118;50.860;13.662;2023-12-07T20:30:42;97058.16;;;4.70;100.00
32747;BME280;19118;50.860;13.662;2023-12-07T20:35:42;97058.97;;;4.70;100.00
32747;BME280;19118;50.860;13.662;2023-12-07T20:40:43;97049.97;;;4.64;100.00
32747;BME280;19118;50.860;13.662;2023-12-07T20:45:43;97033.06;;;4.59;100.00
32747;BME280;19118;50.860;13.662;2023-12-07T20:50:43;97021.09;;;4.48;100.00
32747;BME280;19118;50.860;13.662;2023-12-07T20:55:44;97027.47;;;4.46;100.00
32747;BME280;19118;50.860;13.662;2023-12-07T21:00:44;97015.41;;;4.19;100.00
32747;BME280;19118;50.860;13.662;2023-12-07T21:05:44;97015.25;;;3.86;100.00
32747;BME280;19118;50.860;13.662;2023-12-07T21:10:45;96998.03;;;3.49;100.00
32747;BME280;19118;50.860;13.662;2023-12-07T21:15:45;96994.88;;;3.02;100.00
32747;BME280;19118;50.860;13.662;2023-12-07T21:20:45;96992.94;;;2.69;100.00
32747;BME280;19118;50.860;13.662;2023-12-07T21:25:46;96981.59;;;2.42;100.00
32747;BME280;19118;50.860;13.662;2023-12-07T21:30:46;96983.13;;;2.17;100.00
32747;BME280;19118;50.860;13.662;2023-12-07T21:35:47;96967.72;;;1.96;100.00
32747;BME280;19118;50.860;13.662;2023-12-07T21:40:47;96965.16;;;1.87;100.00
32747;BME280;19118;50.860;13.662;2023-12-07T21:45:47;96953.72;;;1.70;100.00
32747;BME280;19118;50.860;13.662;2023-12-07T21:50:48;96971.03;;;1.52;100.00
32747;BME280;19118;50.860;13.662;2023-12-07T21:55:48;96979.31;;;1.28;100.00
32747;BME280;19118;50.860;13.662;2023-12-07T22:00:48;96965.06;;;1.12;100.00
32747;BME280;19118;50.860;13.662;2023-12-07T22:05:49;96962.63;;;1.11;100.00
32747;BME280;19118;50.860;13.662;2023-12-07T22:10:49;96950.56;;;0.91;100.00
32747;BME280;19118;50.860;13.662;2023-12-07T22:15:50;96951.13;;;1.04;100.00
32747;BME280;19118;50.860;13.662;2023-12-07T22:20:50;96946.22;;;0.91;100.00
32747;BME280;19118;50.860;13.662;2023-12-07T22:25:51;96949.78;;;0.80;100.00
32747;BME280;19118;50.860;13.662;2023-12-07T22:30:52;96959.50;;;0.78;100.00
32747;BME280;19118;50.860;13.662;2023-12-07T22:35:52;96964.03;;;0.76;100.00
32747;BME280;19118;50.860;13.662;2023-12-07T22:40:52;96962.22;;;0.67;100.00
32747;BME280;19118;50.860;13.662;2023-12-07T22:45:53;96962.94;;;0.60;100.00
32747;BME280;19118;50.860;13.662;2023-12-07T22:50:53;96955.81;;;0.52;100.00
32747;BME280;19118;50.860;13.662;2023-12-07T22:55:53;96951.69;;;0.49;100.00
32747;BME280;19118;50.860;13.662;2023-12-07T23:00:54;96938.69;;;0.49;100.00
32747;BME280;19118;50.860;13.662;2023-12-07T23:05:55;96933.06;;;0.54;100.00
32747;BME280;19118;50.860;13.662;2023-12-07T23:10:55;96929.50;;;0.55;100.00
32747;BME280;19118;50.860;13.662;2023-12-07T23:15:55;96922.66;;;0.54;100.00
32747;BME280;19118;50.860;13.662;2023-12-07T23:20:56;96925.94;;;0.56;100.00
32747;BME280;19118;50.860;13.662;2023-12-07T23:25:56;96907.19;;;0.43;100.00
32747;BME280;19118;50.860;13.662;2023-12-07T23:30:57;96915.25;;;0.30;100.00
32747;BME280;19118;50.860;13.662;2023-12-07T23:35:57;96896.66;;;0.35;100.00
32747;BME280;19118;50.860;13.662;2023-12-07T23:40:58;96889.25;;;0.20;100.00
32747;BME280;19118;50.860;13.662;2023-12-07T23:45:58;96885.28;;;0.16;100.00
32747;BME280;19118;50.860;13.662;2023-12-07T23:50:58;96867.34;;;-0.06;100.00
32747;BME280;19118;50.860;13.662;2023-12-07T23:55:59;96856.09;;;-0.16;100.00
